Time;durP1;ratioP1;P1;durP2;ratioP2;P2;SDS_P1;SDS_P2;PMS_P1;PMS_P2;Temp;Humidity;BMP_temperature;BMP_pressure;BME280_temperature;BME280_humidity;BME280_pressure;Samples;Min_cycle;Max_cycle;Signal;HPM_P1;HPM_P2
2022/06/10 00:00:20;;;;;;;10.43;1.45;;;14.60;99.90;;;;;;4998314;28;20045;-73
2022/06/10 00:02:46;;;;;;;8.70;1.40;;;14.70;99.90;;;;;;4998417;28;20092;-73
2022/06/10 00:05:19;;;;;;;8.77;1.92;;;14.60;99.90;;;;;;4998052;28;20078;-73
2022/06/10 00:07:46;;;;;;;7.20;1.55;;;14.60;99.90;;;;;;4997869;28;20049;-73
2022/06/10 00:10:14;;;;;;;6.22;1.70;;;14.50;99.90;;;;;;4997355;28;20422;-72
2022/06/10 00:12:39;;;;;;;5.63;2.00;;;14.60;99.90;;;;;;5015368;28;20057;-76
2022/06/10 00:15:06;;;;;;;8.80;1.60;;;14.60;99.90;;;;;;5015225;28;20360;-73
2022/06/10 00:17:32;;;;;;;6.57;1.30;;;14.60;99.90;;;;;;4997806;28;20061;-73
2022/06/10 00:19:57;;;;;;;5.05;1.63;;;14.50;99.90;;;;;;5015596;28;20042;-73
2022/06/10 00:22:23;;;;;;;5.88;1.48;;;14.40;99.90;;;;;;5015148;28;20399;-73
2022/06/10 00:24:51;;;;;;;5.28;1.60;;;14.40;99.90;;;;;;4997567;28;20173;-73
2022/06/10 00:27:17;;;;;;;6.28;1.90;;;14.40;99.90;;;;;;4997834;28;20447;-73
2022/06/10 00:29:43;;;;;;;7.47;1.83;;;14.40;99.90;;;;;;5014973;28;20057;-72
2022/06/10 00:32:09;;;;;;;9.23;1.50;;;14.40;99.90;;;;;;4997377;28;20046;-73
2022/06/10 00:34:35;;;;;;;6.65;1.70;;;14.40;99.90;;;;;;4997536;28;20042;-73
2022/06/10 00:37:05;;;;;;;5.55;1.77;;;14.40;99.90;;;;;;5014889;28;20080;-73
2022/06/10 00:39:33;;;;;;;6.68;1.85;;;14.40;99.90;;;;;;4997464;28;20136;-73
2022/06/10 00:41:59;;;;;;;9.02;1.90;;;14.30;99.90;;;;;;5014281;28;20133;-73
2022/06/10 00:44:47;;;;;;;5.90;1.65;;;14.40;99.90;;;;;;5014856;28;20176;-73
2022/06/10 00:47:19;;;;;;;11.15;1.80;;;14.40;99.90;;;;;;4997574;28;20057;-73
2022/06/10 00:49:58;;;;;;;10.48;2.08;;;14.30;99.90;;;;;;5014630;28;20038;-73
2022/06/10 00:52:31;;;;;;;8.20;1.90;;;14.30;99.90;;;;;;5014716;28;20058;-73
2022/06/10 00:54:58;;;;;;;6.72;1.77;;;14.30;99.90;;;;;;5014741;28;20073;-73
2022/06/10 00:57:29;;;;;;;5.78;1.70;;;14.30;99.90;;;;;;5014584;28;20475;-73
2022/06/10 01:00:06;;;;;;;6.10;2.17;;;14.30;99.90;;;;;;4997250;28;20064;-72
2022/06/10 01:02:35;;;;;;;9.13;1.80;;;14.20;99.90;;;;;;5014441;28;20046;-73
2022/06/10 01:05:04;;;;;;;6.50;2.33;;;14.20;99.90;;;;;;4996771;28;20050;-73
2022/06/10 01:07:33;;;;;;;9.13;2.38;;;14.30;99.90;;;;;;4980875;28;20050;-73
2022/06/10 01:10:03;;;;;;;7.00;2.00;;;14.30;99.90;;;;;;4996325;28;20054;-73
2022/06/10 01:12:41;;;;;;;11.32;2.15;;;14.20;99.90;;;;;;5014229;28;20089;-72
2022/06/10 01:15:19;;;;;;;5.75;2.15;;;14.20;99.90;;;;;;4997046;28;20553;-73
2022/06/10 01:17:47;;;;;;;9.35;1.58;;;14.20;99.90;;;;;;4996878;28;20490;-73
2022/06/10 01:20:45;;;;;;;8.50;2.22;;;14.20;99.90;;;;;;4996905;28;20046;-73
2022/06/10 01:23:34;;;;;;;7.70;1.90;;;14.20;99.90;;;;;;4980660;28;20188;-72
2022/06/10 01:27:47;;;;;;;8.20;2.03;;;14.20;99.90;;;;;;4996760;28;20133;-73
2022/06/10 01:30:05;;;;;;;3.88;2.08;;;14.10;99.90;;;;;;4996553;28;20418;-73
2022/06/10 01:32:52;;;;;;;8.75;1.92;;;14.20;99.90;;;;;;4966803;28;20066;-73
2022/06/10 01:35:36;;;;;;;6.60;1.70;;;14.10;99.90;;;;;;4996361;28;20088;-73
2022/06/10 01:38:16;;;;;;;8.77;2.50;;;14.10;99.90;;;;;;4996747;28;20398;-73
2022/06/10 01:41:03;;;;;;;6.97;2.05;;;14.10;99.90;;;;;;4996594;28;20143;-73
2022/06/10 01:43:54;;;;;;;9.60;2.35;;;14.00;99.90;;;;;;4996459;28;20056;-73
2022/06/10 01:46:35;;;;;;;5.07;2.10;;;14.00;99.90;;;;;;5014054;28;20101;-73
2022/06/10 01:49:10;;;;;;;11.52;2.30;;;13.90;99.90;;;;;;5013746;28;20046;-73
2022/06/10 01:51:55;;;;;;;6.38;2.10;;;14.00;99.90;;;;;;4996555;28;20050;-73
2022/06/10 01:54:33;;;;;;;7.55;1.90;;;13.90;99.90;;;;;;5012879;28;20053;-73
2022/06/10 01:57:06;;;;;;;4.15;1.52;;;13.90;99.90;;;;;;4996502;28;20449;-74
2022/06/10 01:59:44;;;;;;;8.07;2.08;;;13.90;99.90;;;;;;5013873;28;20137;-73
2022/06/10 02:02:17;;;;;;;6.75;1.83;;;13.90;99.90;;;;;;5013728;28;20049;-73
2022/06/10 02:04:49;;;;;;;9.68;2.60;;;13.90;99.90;;;;;;4996457;28;20045;-73
2022/06/10 02:07:25;;;;;;;7.75;2.33;;;13.90;99.90;;;;;;5013719;28;20092;-73
2022/06/10 02:09:59;;;;;;;8.38;2.63;;;13.80;99.90;;;;;;5012896;28;20104;-73
2022/06/10 02:12:41;;;;;;;9.38;2.55;;;13.80;99.90;;;;;;5013270;28;20120;-73
2022/06/10 02:15:16;;;;;;;5.45;2.25;;;13.80;99.90;;;;;;4996444;28;20049;-73
2022/06/10 02:18:00;;;;;;;12.63;2.72;;;13.80;99.90;;;;;;4996217;28;20471;-73
2022/06/10 02:20:29;;;;;;;7.82;2.22;;;13.80;99.90;;;;;;5013697;28;20050;-73
2022/06/10 02:22:57;;;;;;;8.18;2.42;;;13.80;99.90;;;;;;5013423;28;20054;-73
2022/06/10 02:25:27;;;;;;;8.10;2.40;;;13.80;99.90;;;;;;4996197;28;20054;-73
2022/06/10 02:27:58;;;;;;;9.55;2.60;;;13.80;99.90;;;;;;5013685;28;20445;-73
2022/06/10 02:30:29;;;;;;;7.32;2.22;;;13.80;99.90;;;;;;4996226;28;20100;-73
2022/06/10 02:32:57;;;;;;;7.65;2.58;;;13.80;99.90;;;;;;4996825;28;20046;-73
2022/06/10 02:35:27;;;;;;;11.38;2.70;;;13.80;99.90;;;;;;5013439;28;20390;-73
2022/06/10 02:38:09;;;;;;;7.55;2.13;;;13.80;99.90;;;;;;4996076;28;20137;-73
2022/06/10 02:40:55;;;;;;;6.00;2.40;;;13.80;99.90;;;;;;4995972;28;20107;-73
2022/06/10 02:43:54;;;;;;;7.78;2.30;;;13.80;99.90;;;;;;4996433;28;20395;-72
2022/06/10 02:46:46;;;;;;;7.45;2.45;;;13.80;99.90;;;;;;4989454;28;20132;-73
2022/06/10 02:49:18;;;;;;;8.45;3.13;;;13.80;99.90;;;;;;4979826;28;20438;-73
2022/06/10 02:51:45;;;;;;;6.70;2.65;;;13.70;99.90;;;;;;4995947;28;20125;-72
2022/06/10 02:54:22;;;;;;;8.38;2.40;;;13.60;99.90;;;;;;5013419;28;20121;-72
2022/06/10 02:56:48;;;;;;;9.77;2.38;;;13.60;99.90;;;;;;4995974;28;20399;-72
2022/06/10 03:02:09;;;;;;;8.40;2.47;;;13.70;99.90;;;;;;4995825;28;20470;-72
2022/06/10 03:04:59;;;;;;;12.35;2.67;;;13.80;99.90;;;;;;4996862;28;20096;-73
2022/06/10 03:07:33;;;;;;;8.63;2.53;;;13.80;99.90;;;;;;4999359;28;20491;-72
2022/06/10 03:10:17;;;;;;;7.85;2.63;;;13.70;99.90;;;;;;5016318;28;20144;-74
2022/06/10 03:13:10;;;;;;;7.68;2.85;;;13.70;99.90;;;;;;4999360;28;20543;-72
2022/06/10 03:16:05;;;;;;;6.90;2.80;;;13.70;99.90;;;;;;4999430;28;20372;-72
2022/06/10 03:18:51;;;;;;;8.07;2.55;;;13.70;99.90;;;;;;4930429;28;20055;-73
2022/06/10 03:21:59;;;;;;;7.43;2.50;;;13.70;99.90;;;;;;5016423;28;20044;-72
2022/06/10 03:24:32;;;;;;;9.48;2.83;;;13.60;99.90;;;;;;4998831;28;20505;-72
2022/06/10 03:27:37;;;;;;;11.52;3.20;;;13.60;99.90;;;;;;4999008;28;20406;-73
2022/06/10 03:30:08;;;;;;;9.05;2.25;;;13.60;99.90;;;;;;5016405;28;20045;-72
2022/06/10 03:32:40;;;;;;;10.43;3.20;;;13.50;99.90;;;;;;5016032;28;20045;-73
2022/06/10 03:35:08;;;;;;;12.07;2.67;;;13.50;99.90;;;;;;4998831;28;20045;-73
2022/06/10 03:37:37;;;;;;;6.57;2.40;;;13.50;99.90;;;;;;4998798;28;20057;-73
2022/06/10 03:40:04;;;;;;;8.73;3.30;;;13.50;99.90;;;;;;4998399;28;20049;-72
2022/06/10 03:42:29;;;;;;;8.57;2.45;;;13.50;99.90;;;;;;4998645;28;20437;-72
2022/06/10 03:44:57;;;;;;;6.40;2.42;;;13.60;99.90;;;;;;4982105;28;20046;-72
2022/06/10 03:47:27;;;;;;;8.73;2.45;;;13.50;99.90;;;;;;4998252;28;20133;-72
2022/06/10 03:50:01;;;;;;;7.38;2.50;;;13.50;99.90;;;;;;4998495;28;20136;-73
2022/06/10 03:52:31;;;;;;;22.33;3.65;;;13.50;99.90;;;;;;4999078;28;20462;-72
2022/06/10 03:54:56;;;;;;;12.75;3.13;;;13.60;99.90;;;;;;4998477;28;20482;-72
2022/06/10 03:57:22;;;;;;;8.20;2.53;;;13.70;99.90;;;;;;5015532;28;20088;-72
2022/06/10 03:59:49;;;;;;;9.57;3.08;;;13.80;99.90;;;;;;4998295;28;20502;-72
2022/06/10 04:02:14;;;;;;;9.07;2.78;;;13.80;99.90;;;;;;4998244;28;20506;-73
2022/06/10 04:04:42;;;;;;;7.20;2.58;;;13.80;99.90;;;;;;4998026;28;20049;-72
2022/06/10 04:07:10;;;;;;;7.93;2.72;;;13.90;99.90;;;;;;5015607;28;20120;-72
2022/06/10 04:09:36;;;;;;;7.65;3.08;;;13.90;99.90;;;;;;4994172;28;20060;-73
2022/06/10 04:12:02;;;;;;;12.10;3.03;;;13.90;99.90;;;;;;4995569;28;20050;-72
2022/06/10 04:14:28;;;;;;;8.73;3.10;;;14.00;99.90;;;;;;4995841;28;20050;-72
2022/06/10 04:16:54;;;;;;;11.32;2.95;;;14.00;99.90;;;;;;4993876;28;20050;-73
2022/06/10 04:19:20;;;;;;;9.07;3.03;;;14.00;99.90;;;;;;5011013;28;20038;-72
2022/06/10 04:21:46;;;;;;;8.07;2.95;;;14.10;99.90;;;;;;4994781;28;20054;-73
2022/06/10 04:24:11;;;;;;;11.90;2.88;;;14.10;99.90;;;;;;4995476;28;20100;-72
2022/06/10 04:26:37;;;;;;;9.73;3.15;;;14.20;99.90;;;;;;4995635;28;20125;-73
2022/06/10 04:29:03;;;;;;;9.38;3.40;;;14.30;99.90;;;;;;4995192;28;20050;-72
2022/06/10 04:31:29;;;;;;;8.90;2.95;;;14.40;99.90;;;;;;4994189;28;20100;-74
2022/06/10 04:33:55;;;;;;;6.75;2.60;;;14.50;99.90;;;;;;4995775;28;20046;-73
2022/06/10 04:36:21;;;;;;;5.20;2.42;;;14.50;99.90;;;;;;4994429;28;20495;-73
2022/06/10 04:38:47;;;;;;;14.07;3.13;;;14.60;99.90;;;;;;4995296;28;20054;-73
2022/06/10 04:41:13;;;;;;;9.70;2.67;;;14.70;99.90;;;;;;4993940;28;20046;-72
2022/06/10 04:43:39;;;;;;;9.90;2.72;;;14.90;99.90;;;;;;4994178;28;20133;-72
2022/06/10 04:46:07;;;;;;;8.57;2.50;;;15.00;99.90;;;;;;4977951;28;20093;-73
2022/06/10 04:48:34;;;;;;;11.75;2.72;;;15.10;99.90;;;;;;4995101;28;20088;-73
2022/06/10 04:51:00;;;;;;;14.45;3.28;;;15.20;99.90;;;;;;4994066;28;20058;-73
2022/06/10 04:53:26;;;;;;;9.93;2.80;;;15.30;99.90;;;;;;4994004;28;20061;-72
2022/06/10 04:55:52;;;;;;;15.52;3.85;;;15.40;99.90;;;;;;4994055;28;20082;-72
2022/06/10 04:58:18;;;;;;;9.38;3.03;;;15.50;99.90;;;;;;4993984;28;20128;-72
2022/06/10 05:00:48;;;;;;;10.18;3.08;;;15.60;99.90;;;;;;4994900;28;20049;-73
2022/06/10 05:03:15;;;;;;;12.93;2.60;;;15.90;99.90;;;;;;4994197;28;20062;-73
2022/06/10 05:05:42;;;;;;;12.20;2.65;;;16.20;99.90;;;;;;4993912;28;20054;-72
2022/06/10 05:08:10;;;;;;;17.52;2.90;;;16.30;99.90;;;;;;4994943;28;20136;-73
2022/06/10 05:10:36;;;;;;;12.63;2.97;;;16.30;99.90;;;;;;5013661;28;20057;-73
2022/06/10 05:13:02;;;;;;;9.48;2.33;;;16.40;99.90;;;;;;4997137;28;20437;-73
2022/06/10 05:15:28;;;;;;;15.07;2.90;;;16.60;99.90;;;;;;5014216;28;20049;-73
2022/06/10 05:17:56;;;;;;;13.57;3.33;;;16.60;99.90;;;;;;5014427;28;20050;-73
2022/06/10 05:20:26;;;;;;;11.52;3.50;;;16.60;99.90;;;;;;4996953;28;20387;-73
2022/06/10 05:22:52;;;;;;;11.45;2.63;;;16.70;99.90;;;;;;4996882;28;20490;-73
2022/06/10 05:25:17;;;;;;;10.85;2.90;;;16.70;99.90;;;;;;4980269;28;20045;-73
2022/06/10 05:27:44;;;;;;;15.18;3.65;;;16.60;99.90;;;;;;4996761;28;20045;-74
2022/06/10 05:30:17;;;;;;;10.48;3.03;;;16.60;99.90;;;;;;4996778;28;20046;-73
2022/06/10 05:32:42;;;;;;;11.15;3.08;;;16.80;99.90;;;;;;4996770;28;20117;-73
2022/06/10 05:35:08;;;;;;;15.73;2.67;;;16.80;99.90;;;;;;4980638;28;20426;-73
2022/06/10 05:37:34;;;;;;;10.60;2.97;;;16.80;99.90;;;;;;5013952;28;20060;-73
2022/06/10 05:40:00;;;;;;;14.55;3.20;;;16.60;99.90;;;;;;5013634;28;20129;-73
2022/06/10 05:42:26;;;;;;;16.88;3.33;;;16.70;99.90;;;;;;4996177;28;20050;-73
2022/06/10 05:44:52;;;;;;;15.50;3.40;;;16.70;99.90;;;;;;4996372;28;20053;-73
2022/06/10 05:47:21;;;;;;;15.88;3.30;;;16.60;99.90;;;;;;4996508;28;20041;-73
2022/06/10 05:49:49;;;;;;;14.88;2.90;;;16.70;99.90;;;;;;5013762;28;20049;-72
2022/06/10 05:52:17;;;;;;;9.32;2.90;;;16.60;99.90;;;;;;5013779;28;20042;-72
2022/06/10 05:54:46;;;;;;;15.25;3.05;;;16.70;99.90;;;;;;4996052;28;20053;-73
2022/06/10 05:57:13;;;;;;;14.38;3.10;;;16.80;99.90;;;;;;5013748;28;20049;-72
2022/06/10 05:59:39;;;;;;;12.70;3.47;;;16.90;99.90;;;;;;4996396;28;20061;-72
2022/06/10 06:02:07;;;;;;;13.40;3.65;;;16.80;99.90;;;;;;4996155;28;20537;-72
2022/06/10 06:04:33;;;;;;;12.20;2.85;;;16.70;99.90;;;;;;5013592;28;20082;-72
2022/06/10 06:06:59;;;;;;;11.38;3.05;;;16.80;99.90;;;;;;5013611;28;20085;-73
2022/06/10 06:09:26;;;;;;;12.02;3.35;;;16.80;99.90;;;;;;4995780;28;20088;-73
2022/06/10 06:11:54;;;;;;;14.10;3.60;;;16.80;99.90;;;;;;4996301;28;20046;-73
2022/06/10 06:14:21;;;;;;;12.55;3.22;;;16.90;99.90;;;;;;4996269;28;20495;-73
2022/06/10 06:16:53;;;;;;;11.05;3.47;;;16.90;99.90;;;;;;4995998;28;20376;-73
2022/06/10 06:19:19;;;;;;;15.75;3.75;;;16.80;99.90;;;;;;4996305;28;20089;-72
2022/06/10 06:21:45;;;;;;;15.57;3.22;;;16.80;99.90;;;;;;5013626;28;20046;-72
2022/06/10 06:24:11;;;;;;;13.15;3.40;;;16.70;99.90;;;;;;4996093;28;20041;-73
2022/06/10 06:26:36;;;;;;;17.33;3.80;;;16.80;99.90;;;;;;4995852;28;20095;-73
2022/06/10 06:29:03;;;;;;;13.05;3.47;;;16.90;99.90;;;;;;4996149;28;20046;-72
2022/06/10 06:31:28;;;;;;;13.80;3.20;;;16.90;99.90;;;;;;5013346;28;20046;-73
2022/06/10 06:33:54;;;;;;;13.88;3.38;;;17.00;99.90;;;;;;4996137;28;20192;-73
2022/06/10 06:36:25;;;;;;;11.38;3.20;;;17.20;99.90;;;;;;5013392;28;20050;-73
2022/06/10 06:38:51;;;;;;;15.95;3.78;;;17.30;99.90;;;;;;5013319;28;20060;-73
2022/06/10 06:41:19;;;;;;;13.38;3.90;;;17.10;99.90;;;;;;4999319;28;20057;-72
2022/06/10 06:43:45;;;;;;;14.68;4.13;;;17.10;99.90;;;;;;4999639;28;20050;-72
2022/06/10 06:46:16;;;;;;;19.92;3.75;;;16.90;99.90;;;;;;4999797;28;20056;-75
2022/06/10 06:48:43;;;;;;;13.38;3.88;;;16.90;99.90;;;;;;5017048;28;20073;-71
2022/06/10 06:51:10;;;;;;;16.58;4.22;;;16.90;99.90;;;;;;5016755;28;20038;-72
2022/06/10 06:53:36;;;;;;;16.60;4.82;;;16.80;99.90;;;;;;5016561;28;20042;-70
2022/06/10 06:56:06;;;;;;;18.10;4.80;;;16.80;99.90;;;;;;5016528;28;20046;-70
2022/06/10 06:58:32;;;;;;;12.98;4.70;;;16.80;99.90;;;;;;5016820;28;20042;-70
2022/06/10 07:00:58;;;;;;;12.82;4.40;;;16.90;99.90;;;;;;5016647;28;20038;-71
2022/06/10 07:03:25;;;;;;;18.13;4.32;;;16.90;99.90;;;;;;5016449;28;21917;-72
2022/06/10 07:05:51;;;;;;;13.63;4.20;;;17.00;99.90;;;;;;4982993;28;20100;-71
2022/06/10 07:08:17;;;;;;;9.20;3.83;;;17.00;99.90;;;;;;5016502;28;20057;-71
2022/06/10 07:10:43;;;;;;;13.52;4.03;;;17.10;99.90;;;;;;5016261;28;20058;-71
2022/06/10 07:13:10;;;;;;;13.15;3.55;;;17.10;99.90;;;;;;5016330;28;20113;-71
2022/06/10 07:15:40;;;;;;;17.58;3.70;;;17.10;99.90;;;;;;5016257;28;20065;-71
2022/06/10 07:18:06;;;;;;;13.68;4.13;;;17.40;99.90;;;;;;5016199;28;20128;-71
2022/06/10 07:20:34;;;;;;;16.77;4.25;;;17.30;99.90;;;;;;4998995;28;20125;-71
2022/06/10 07:23:01;;;;;;;16.42;4.25;;;17.40;99.90;;;;;;5016364;28;20130;-70
2022/06/10 07:25:29;;;;;;;14.63;4.30;;;17.60;99.90;;;;;;5016213;28;20052;-71
2022/06/10 07:27:55;;;;;;;14.70;4.50;;;17.90;99.90;;;;;;5016238;28;20092;-70
2022/06/10 07:30:24;;;;;;;11.90;4.75;;;17.90;99.90;;;;;;5016128;28;20041;-70
2022/06/10 07:32:49;;;;;;;11.95;4.97;;;18.00;99.90;;;;;;5016087;28;20501;-70
2022/06/10 07:35:18;;;;;;;14.65;5.40;;;17.90;99.90;;;;;;5016394;28;20042;-71
2022/06/10 07:37:45;;;;;;;14.70;4.88;;;17.80;99.90;;;;;;5016179;28;20058;-70
2022/06/10 07:41:56;;;;;;;16.35;5.80;;;17.80;99.90;;;;;;5015742;28;20137;-70
2022/06/10 07:43:03;;;;;;;14.77;5.57;;;17.80;99.90;;;;;;5016000;28;20062;-70
2022/06/10 07:45:29;;;;;;;15.90;5.18;;;17.90;99.90;;;;;;5015768;28;20042;-71
2022/06/10 07:47:55;;;;;;;16.80;5.78;;;18.00;99.90;;;;;;5015772;28;20045;-73
2022/06/10 07:50:23;;;;;;;12.13;5.93;;;18.10;99.90;;;;;;5017167;28;20057;-74
2022/06/10 07:52:49;;;;;;;13.65;5.45;;;18.20;99.90;;;;;;5020371;28;20128;-72
2022/06/10 07:55:16;;;;;;;12.10;5.43;;;18.20;99.90;;;;;;5015732;28;20053;-72
2022/06/10 07:57:42;;;;;;;14.82;6.65;;;18.10;99.90;;;;;;4998545;28;20054;-72
2022/06/10 08:00:10;;;;;;;12.77;5.80;;;18.20;99.90;;;;;;5015958;28;20072;-72
2022/06/10 08:02:37;;;;;;;13.18;5.30;;;18.30;99.90;;;;;;4998371;28;20050;-71
2022/06/10 08:05:04;;;;;;;10.23;4.93;;;18.10;99.90;;;;;;5014369;28;20545;-71
2022/06/10 08:07:30;;;;;;;15.55;5.70;;;18.00;99.90;;;;;;4981915;28;20069;-72
2022/06/10 08:09:56;;;;;;;12.65;5.20;;;17.90;99.90;;;;;;5014990;28;20054;-72
2022/06/10 08:12:22;;;;;;;13.80;5.90;;;17.90;99.90;;;;;;4997982;28;20085;-72
2022/06/10 08:14:48;;;;;;;12.13;5.35;;;18.00;99.90;;;;;;5015293;28;20088;-72
2022/06/10 08:17:14;;;;;;;13.38;5.35;;;18.00;99.90;;;;;;5015563;28;20053;-72
2022/06/10 08:19:40;;;;;;;13.25;5.30;;;18.20;99.90;;;;;;5014530;28;20046;-73
2022/06/10 08:24:51;;;;;;;11.45;4.95;;;18.30;99.90;;;;;;5015126;28;20049;-72
2022/06/10 08:27:17;;;;;;;10.88;4.72;;;18.30;99.90;;;;;;5015010;28;20049;-73
2022/06/10 08:29:44;;;;;;;14.88;6.25;;;18.40;99.90;;;;;;5015430;28;20046;-72
2022/06/10 08:32:09;;;;;;;13.40;5.18;;;18.30;99.90;;;;;;4997914;28;20057;-72
2022/06/10 08:34:36;;;;;;;15.43;5.80;;;18.30;99.90;;;;;;5015021;28;20050;-71
2022/06/10 08:37:02;;;;;;;17.85;5.63;;;18.40;99.90;;;;;;5014917;28;20050;-72
2022/06/10 08:39:28;;;;;;;19.35;5.55;;;18.40;99.90;;;;;;5014865;28;20050;-72
2022/06/10 08:42:31;;;;;;;16.85;4.97;;;18.40;99.90;;;;;;5014534;28;20450;-72
2022/06/10 08:45:07;;;;;;;11.60;4.68;;;18.50;99.90;;;;;;5014694;28;20042;-72
2022/06/10 08:47:32;;;;;;;15.23;5.10;;;18.60;99.90;;;;;;5015136;28;20060;-72
2022/06/10 08:50:05;;;;;;;17.50;5.85;;;18.70;99.90;;;;;;5014387;28;20376;-73
2022/06/10 08:52:41;;;;;;;16.05;5.70;;;18.60;99.90;;;;;;5014751;28;20506;-72
2022/06/10 08:55:10;;;;;;;;;;;18.60;99.90;;;;;;4997822;28;20049;-72
2022/06/10 08:57:37;;;;;;;17.73;5.47;;;18.50;99.90;;;;;;5014580;28;19929;-73
2022/06/10 09:00:13;;;;;;;14.40;6.15;;;18.40;99.90;;;;;;5014537;28;20081;-73
2022/06/10 09:02:43;;;;;;;17.88;5.68;;;18.50;99.90;;;;;;5014214;28;20095;-75
2022/06/10 09:05:17;;;;;;;21.50;6.07;;;18.50;99.90;;;;;;4997066;28;20050;-73
2022/06/10 09:07:53;;;;;;;14.20;6.03;;;18.50;99.90;;;;;;5014469;28;20179;-72
2022/06/10 09:10:25;;;;;;;12.27;5.38;;;18.50;99.90;;;;;;5014316;28;20062;-73
2022/06/10 09:13:05;;;;;;;20.30;5.93;;;18.60;99.90;;;;;;5013858;28;20053;-75
2022/06/10 09:15:33;;;;;;;12.65;5.57;;;18.80;99.90;;;;;;5014255;28;20504;-74
2022/06/10 09:18:08;;;;;;;14.52;5.50;;;19.10;99.90;;;;;;5014195;28;20057;-74
2022/06/10 09:21:12;;;;;;;14.32;5.88;;;19.50;99.90;;;;;;5014277;28;20171;-73
2022/06/10 09:23:44;;;;;;;13.57;5.22;;;19.70;99.90;;;;;;5013879;28;20640;-75
2022/06/10 09:26:24;;;;;;;16.08;5.90;;;19.60;99.90;;;;;;5012890;28;20050;-73
2022/06/10 09:28:50;;;;;;;13.40;6.03;;;19.50;99.90;;;;;;5014066;28;20509;-72
2022/06/10 09:31:30;;;;;;;15.57;5.75;;;19.10;99.90;;;;;;5014088;28;20092;-72
2022/06/10 09:33:59;;;;;;;19.40;6.18;;;18.90;99.90;;;;;;5014002;28;20112;-81
2022/06/10 09:36:24;;;;;;;17.25;6.50;;;18.90;99.90;;;;;;5013992;28;20111;-74
2022/06/10 09:39:05;;;;;;;17.00;5.95;;;18.70;99.90;;;;;;5014030;28;20433;-74
2022/06/10 09:41:37;;;;;;;13.27;5.50;;;18.60;99.90;;;;;;5013736;28;20053;-74
2022/06/10 09:44:28;;;;;;;16.58;5.13;;;18.70;99.90;;;;;;4996750;28;20045;-74
2022/06/10 09:47:03;;;;;;;14.10;5.40;;;18.80;99.90;;;;;;5013868;28;20049;-74
2022/06/10 09:50:04;;;;;;;13.32;5.25;;;18.80;99.90;;;;;;5014093;28;20058;-74
2022/06/10 09:52:33;;;;;;;16.95;5.88;;;18.80;99.90;;;;;;5013883;28;20049;-75
2022/06/10 09:55:04;;;;;;;13.80;6.25;;;18.80;99.90;;;;;;5013697;28;20483;-74
2022/06/10 09:57:30;;;;;;;15.52;5.63;;;18.80;99.90;;;;;;5013774;28;20046;-74
2022/06/10 10:00:18;;;;;;;13.57;5.68;;;18.80;99.90;;;;;;5013687;28;20133;-74
2022/06/10 10:03:18;;;;;;;13.07;5.28;;;18.80;99.90;;;;;;5013815;28;20064;-73
2022/06/10 10:05:43;;;;;;;16.90;5.75;;;18.70;99.90;;;;;;5013760;28;20046;-73
2022/06/10 10:08:32;;;;;;;19.75;5.88;;;18.80;99.90;;;;;;5013741;28;20104;-73
2022/06/10 10:11:25;;;;;;;15.48;6.07;;;18.90;99.90;;;;;;5013728;28;20057;-74
2022/06/10 10:13:54;;;;;;;13.05;5.80;;;19.30;99.90;;;;;;5013657;28;20050;-74
2022/06/10 10:17:12;;;;;;;14.60;6.70;;;19.50;99.90;;;;;;5017446;28;20053;-74
2022/06/10 10:19:43;;;;;;;16.30;6.40;;;19.50;99.90;;;;;;4953911;28;20054;-73
2022/06/10 10:22:12;;;;;;;17.58;6.53;;;19.70;99.90;;;;;;5017243;28;20057;-69
2022/06/10 10:24:42;;;;;;;13.98;6.25;;;19.70;99.90;;;;;;4999809;28;20133;-71
2022/06/10 10:27:20;;;;;;;17.00;6.40;;;19.50;99.90;;;;;;5018636;28;20057;-71
2022/06/10 10:29:50;;;;;;;19.73;6.53;;;19.80;99.90;;;;;;5017493;28;20050;-74
2022/06/10 10:32:24;;;;;;;14.73;5.63;;;19.90;99.90;;;;;;5017472;28;20041;-73
2022/06/10 10:34:55;;;;;;;14.45;5.82;;;19.90;99.90;;;;;;5016817;28;20568;-75
2022/06/10 10:37:27;;;;;;;14.57;5.47;;;20.10;99.90;;;;;;5017164;28;20057;-75
2022/06/10 10:39:59;;;;;;;15.07;5.85;;;19.70;99.90;;;;;;5016718;28;20068;-77
2022/06/10 10:42:30;;;;;;;14.52;5.28;;;19.70;99.90;;;;;;4999692;28;20064;-71
2022/06/10 10:45:15;;;;;;;15.20;5.80;;;19.90;99.90;;;;;;5017057;28;20042;-73
2022/06/10 10:47:59;;;;;;;15.68;6.20;;;19.90;99.90;;;;;;5017243;28;20099;-72
2022/06/10 10:50:37;;;;;;;16.15;6.88;;;19.90;99.90;;;;;;4999754;28;20058;-73
2022/06/10 10:53:35;;;;;;;15.65;5.50;;;19.80;99.90;;;;;;4999642;28;20049;-72
2022/06/10 10:56:02;;;;;;;13.90;5.88;;;19.80;99.90;;;;;;5016936;28;20089;-73
2022/06/10 10:58:33;;;;;;;14.20;5.80;;;19.70;99.90;;;;;;4999390;28;20054;-72
2022/06/10 11:01:04;;;;;;;12.65;5.20;;;19.70;99.90;;;;;;5017478;28;20046;-73
2022/06/10 11:03:36;;;;;;;11.25;4.78;;;19.80;99.90;;;;;;5018248;28;20042;-72
2022/06/10 11:06:06;;;;;;;14.20;5.63;;;20.10;99.90;;;;;;5016752;28;20049;-72
2022/06/10 11:08:35;;;;;;;17.45;5.28;;;20.10;99.90;;;;;;5016399;28;20052;-72
2022/06/10 11:11:17;;;;;;;11.52;4.68;;;20.10;99.90;;;;;;5016355;28;20058;-72
2022/06/10 11:13:57;;;;;;;12.20;5.22;;;20.50;99.90;;;;;;5016544;28;20042;-72
2022/06/10 11:16:31;;;;;;;14.85;4.45;;;20.30;99.90;;;;;;5016427;28;20085;-72
2022/06/10 11:19:12;;;;;;;13.40;5.13;;;20.20;99.90;;;;;;5016535;28;20050;-73
2022/06/10 11:22:06;;;;;;;13.50;4.13;;;19.90;99.90;;;;;;5016537;28;20057;-73
2022/06/10 11:24:40;;;;;;;13.70;4.05;;;19.80;99.90;;;;;;4998864;28;20046;-73
2022/06/10 11:27:23;;;;;;;12.88;4.85;;;20.00;99.90;;;;;;5016201;28;20049;-74
2022/06/10 11:30:10;;;;;;;16.02;4.90;;;20.20;99.90;;;;;;5016448;28;20053;-74
2022/06/10 11:33:01;;;;;;;9.95;4.45;;;20.20;99.90;;;;;;4998983;28;20103;-73
2022/06/10 11:35:32;;;;;;;14.85;4.90;;;20.20;99.90;;;;;;5016210;28;20493;-73
2022/06/10 11:38:03;;;;;;;13.88;4.88;;;20.00;99.90;;;;;;5016180;28;20071;-73
2022/06/10 11:40:48;;;;;;;13.55;4.32;;;20.10;99.90;;;;;;5015864;28;20061;-73
2022/06/10 11:43:34;;;;;;;11.77;4.30;;;20.10;99.90;;;;;;5016043;28;20136;-73
2022/06/10 11:46:33;;;;;;;11.32;3.55;;;19.90;99.90;;;;;;4998410;28;20073;-73
2022/06/10 11:49:18;;;;;;;9.05;3.45;;;20.20;99.90;;;;;;5015901;28;20046;-73
2022/06/10 11:51:50;;;;;;;9.20;4.20;;;20.50;99.90;;;;;;4998624;28;20049;-73
2022/06/10 11:54:35;;;;;;;7.70;4.13;;;20.70;99.90;;;;;;5015892;28;20497;-73
2022/06/10 12:00:20;;;;;;;12.45;4.75;;;20.60;99.90;;;;;;5015718;28;20093;-73
2022/06/10 12:03:06;;;;;;;9.25;3.47;;;20.60;99.90;;;;;;5015810;28;20045;-73
2022/06/10 12:06:03;;;;;;;11.38;4.05;;;21.00;99.90;;;;;;4998378;28;20137;-72
2022/06/10 12:08:48;;;;;;;11.77;3.60;;;21.10;99.90;;;;;;5015309;28;20045;-73
2022/06/10 12:11:24;;;;;;;11.63;4.13;;;21.30;99.90;;;;;;5015301;28;20123;-73
2022/06/10 12:14:18;;;;;;;10.93;3.88;;;21.50;99.90;;;;;;4998263;28;20062;-73
2022/06/10 12:16:48;;;;;;;11.25;4.40;;;22.20;99.90;;;;;;5015342;28;20046;-74
2022/06/10 12:19:22;;;;;;;17.08;5.07;;;22.30;99.90;;;;;;5015361;28;20054;-73
2022/06/10 12:21:48;;;;;;;13.60;4.80;;;22.20;99.90;;;;;;5015512;28;20046;-73
2022/06/10 12:24:16;;;;;;;10.05;4.22;;;22.10;99.90;;;;;;5015163;28;20038;-73
2022/06/10 12:27:00;;;;;;;15.43;4.05;;;21.90;99.90;;;;;;5015088;28;20045;-73
2022/06/10 12:29:32;;;;;;;9.93;3.92;;;21.70;99.90;;;;;;5014763;28;20402;-73
2022/06/10 12:32:07;;;;;;;14.75;4.20;;;21.60;99.90;;;;;;5015004;28;20057;-73
2022/06/10 12:34:45;;;;;;;19.98;4.13;;;21.50;99.90;;;;;;5015117;28;20042;-73
2022/06/10 12:37:16;;;;;;;15.02;4.10;;;21.60;99.90;;;;;;4997111;28;20100;-73
2022/06/10 12:39:57;;;;;;;17.70;3.67;;;21.60;99.90;;;;;;4997328;28;20050;-73
2022/06/10 12:42:28;;;;;;;12.57;3.67;;;21.60;99.90;;;;;;5015020;28;20100;-73
2022/06/10 12:44:57;;;;;;;18.10;4.20;;;21.70;99.90;;;;;;4997357;28;20491;-73
2022/06/10 12:47:29;;;;;;;13.60;3.80;;;21.80;99.90;;;;;;5014827;28;20042;-73
2022/06/10 12:49:58;;;;;;;10.60;3.83;;;21.80;99.90;;;;;;5014875;28;20387;-73
2022/06/10 12:52:53;;;;;;;11.73;3.58;;;21.90;99.90;;;;;;5014646;28;20104;-80
2022/06/10 12:55:24;;;;;;;13.27;3.53;;;22.10;99.90;;;;;;5014997;28;20081;-73
2022/06/10 12:57:50;;;;;;;14.00;3.88;;;22.10;99.90;;;;;;5014967;28;20439;-73
2022/06/10 13:00:18;;;;;;;15.18;3.78;;;22.40;99.90;;;;;;4997120;28;20107;-73
2022/06/10 13:02:59;;;;;;;11.80;3.42;;;22.30;99.90;;;;;;5014506;28;20128;-73
2022/06/10 13:05:31;;;;;;;13.20;3.08;;;22.10;99.90;;;;;;5014204;28;20414;-73
2022/06/10 13:07:58;;;;;;;7.50;3.05;;;22.20;99.90;;;;;;5014428;28;20045;-73
2022/06/10 13:10:43;;;;;;;13.48;3.50;;;22.30;99.90;;;;;;5014195;28;20058;-73
2022/06/10 13:13:23;;;;;;;14.45;3.40;;;22.30;99.90;;;;;;5014365;28;20054;-73
2022/06/10 13:15:54;;;;;;;16.25;4.05;;;22.10;99.90;;;;;;4996878;28;20050;-74
2022/06/10 13:18:35;;;;;;;10.98;3.00;;;21.90;99.90;;;;;;4997134;28;20051;-73